createdAt,value
2018-07-11T00:02:12.076Z,953.11
2018-07-11T00:04:38.402Z,953.14
2018-07-11T00:07:04.730Z,953.12
2018-07-11T00:09:31.043Z,953.14
2018-07-11T00:11:57.362Z,953.18
2018-07-11T00:14:23.677Z,953.17
2018-07-11T00:16:49.990Z,953.10
2018-07-11T00:19:16.307Z,953.17
2018-07-11T00:21:42.618Z,953.13
2018-07-11T00:24:08.928Z,953.05
2018-07-11T00:26:35.244Z,953.02
2018-07-11T00:29:01.559Z,953.03
2018-07-11T00:31:27.882Z,953.01
2018-07-11T00:33:54.197Z,953.03
2018-07-11T00:36:20.508Z,952.98
2018-07-11T00:38:46.824Z,952.99
2018-07-11T00:41:13.134Z,952.95
2018-07-11T00:43:39.449Z,952.96
2018-07-11T00:46:05.765Z,952.98
2018-07-11T00:48:32.072Z,953.00
2018-07-11T00:50:58.386Z,952.98
2018-07-11T00:53:24.700Z,952.99
2018-07-11T00:55:51.022Z,952.88
2018-07-11T00:58:17.324Z,952.96
2018-07-11T01:00:43.641Z,952.92
2018-07-11T01:03:09.960Z,952.94
2018-07-11T01:05:36.332Z,952.95
2018-07-11T01:08:02.681Z,952.91
2018-07-11T01:10:29.095Z,952.93
2018-07-11T01:12:55.456Z,952.89
2018-07-11T01:15:21.813Z,952.92
2018-07-11T01:17:48.161Z,952.89
2018-07-11T01:20:14.525Z,952.90
2018-07-11T01:22:40.886Z,952.98
2018-07-11T01:25:07.257Z,952.91
2018-07-11T01:27:33.609Z,952.90
2018-07-11T01:29:59.969Z,952.93
2018-07-11T01:32:26.321Z,952.94
2018-07-11T01:34:52.673Z,952.90
2018-07-11T01:37:19.033Z,952.84
2018-07-11T01:39:45.395Z,952.86
2018-07-11T01:42:11.754Z,952.90
2018-07-11T01:44:38.152Z,952.94
2018-07-11T01:47:04.512Z,952.99
2018-07-11T01:49:30.910Z,952.89
2018-07-11T01:51:57.299Z,952.97
2018-07-11T01:54:23.628Z,952.94
2018-07-11T01:56:49.980Z,952.89
2018-07-11T01:59:16.343Z,952.94
2018-07-11T02:01:42.695Z,952.94
2018-07-11T02:04:09.050Z,952.93
2018-07-11T02:06:35.421Z,952.90
2018-07-11T02:09:01.787Z,952.93
2018-07-11T02:11:28.138Z,952.93
2018-07-11T02:13:54.498Z,952.95
2018-07-11T02:16:20.881Z,952.98
2018-07-11T02:18:47.288Z,952.98
2018-07-11T02:21:13.677Z,953.02
2018-07-11T02:23:40.036Z,952.99
2018-07-11T02:26:06.444Z,953.09
2018-07-11T02:28:32.805Z,953.07
2018-07-11T02:30:59.160Z,953.11
2018-07-11T02:33:25.513Z,953.11
2018-07-11T02:35:51.862Z,953.09
2018-07-11T02:38:18.216Z,953.05
2018-07-11T02:40:44.584Z,953.02
2018-07-11T02:43:10.978Z,953.04
2018-07-11T02:45:37.333Z,953.04
2018-07-11T02:48:03.691Z,953.09
2018-07-11T02:50:30.048Z,953.09
2018-07-11T02:52:56.408Z,953.07
2018-07-11T02:55:22.761Z,953.07
2018-07-11T02:57:49.125Z,953.04
2018-07-11T03:00:15.517Z,953.04
2018-07-11T03:02:41.871Z,953.08
2018-07-11T03:05:08.225Z,953.09
2018-07-11T03:07:34.631Z,953.07
2018-07-11T03:10:00.989Z,953.12
2018-07-11T03:12:27.342Z,953.17
2018-07-11T03:14:53.694Z,953.26
2018-07-11T03:17:20.051Z,953.22
2018-07-11T03:19:46.402Z,953.18
2018-07-11T03:22:12.761Z,953.23
2018-07-11T03:24:39.117Z,953.28
2018-07-11T03:27:05.470Z,953.28
2018-07-11T03:29:31.825Z,953.21
2018-07-11T03:31:58.193Z,953.16
2018-07-11T03:34:24.554Z,953.19
2018-07-11T03:36:50.930Z,953.21
2018-07-11T03:39:17.285Z,953.19
2018-07-11T03:41:43.640Z,953.19
2018-07-11T03:44:10.033Z,953.24
2018-07-11T03:46:36.429Z,953.24
2018-07-11T03:49:02.834Z,953.35
2018-07-11T03:51:29.187Z,953.33
2018-07-11T03:53:55.546Z,953.38
2018-07-11T03:56:21.906Z,953.43
2018-07-11T03:58:48.266Z,953.41
2018-07-11T04:01:14.621Z,953.43
2018-07-11T04:03:41.025Z,953.49
2018-07-11T04:06:07.381Z,953.56
2018-07-11T04:08:33.838Z,953.52
2018-07-11T04:11:00.159Z,953.56
2018-07-11T04:13:26.508Z,953.61
2018-07-11T04:15:52.892Z,953.63
2018-07-11T04:18:19.241Z,953.65
2018-07-11T04:20:45.643Z,953.66
2018-07-11T04:23:12.220Z,953.74
2018-07-11T04:25:38.592Z,953.75
2018-07-11T04:28:04.951Z,953.71
2018-07-11T04:30:31.317Z,953.74
2018-07-11T04:32:57.688Z,953.72
2018-07-11T04:35:24.049Z,953.71
2018-07-11T04:37:50.445Z,953.79
2018-07-11T04:40:16.804Z,953.71
2018-07-11T04:42:43.158Z,953.70
2018-07-11T04:45:09.520Z,953.77
2018-07-11T04:47:35.900Z,953.74
2018-07-11T04:50:02.266Z,953.75
2018-07-11T04:52:28.626Z,953.70
2018-07-11T04:54:55.087Z,953.77
2018-07-11T04:57:21.418Z,953.72
2018-07-11T04:59:47.840Z,953.72
2018-07-11T05:02:14.296Z,953.69
2018-07-11T05:04:40.711Z,953.74
2018-07-11T05:07:07.120Z,953.71
2018-07-11T05:09:33.477Z,953.73
2018-07-11T05:11:59.907Z,953.76
2018-07-11T05:14:26.280Z,953.73
2018-07-11T05:16:52.640Z,953.69
2018-07-11T05:19:19.027Z,953.72
2018-07-11T05:21:45.427Z,953.80
2018-07-11T05:24:11.856Z,953.76
2018-07-11T05:26:38.173Z,953.78
2018-07-11T05:29:04.533Z,953.73
2018-07-11T05:31:30.888Z,953.72
2018-07-11T05:33:57.409Z,953.73
2018-07-11T05:36:23.865Z,953.69
2018-07-11T05:38:50.181Z,953.67
2018-07-11T05:41:16.544Z,953.71
2018-07-11T05:43:42.897Z,953.71
2018-07-11T05:46:09.250Z,953.78
2018-07-11T05:48:35.606Z,953.68
2018-07-11T05:51:01.958Z,953.69
2018-07-11T05:53:28.313Z,953.74
2018-07-11T05:55:54.671Z,953.66
2018-07-11T05:58:21.084Z,953.65
2018-07-11T06:00:47.414Z,953.72
2018-07-11T06:03:13.772Z,953.67
2018-07-11T06:05:40.134Z,953.69
2018-07-11T06:08:06.504Z,953.69
2018-07-11T06:10:32.870Z,953.68
2018-07-11T06:12:59.257Z,953.60
2018-07-11T06:15:25.694Z,953.59
2018-07-11T06:17:52.060Z,953.58
2018-07-11T06:20:18.482Z,953.54
2018-07-11T06:22:44.852Z,953.52
2018-07-11T06:25:11.217Z,953.48
2018-07-11T06:27:37.571Z,953.43
2018-07-11T06:30:03.971Z,953.42
2018-07-11T06:32:30.341Z,953.41
2018-07-11T06:34:56.690Z,953.35
2018-07-11T06:37:23.058Z,953.45
2018-07-11T06:39:49.424Z,953.55
2018-07-11T06:42:15.781Z,953.52
2018-07-11T06:44:42.132Z,953.48
2018-07-11T06:47:08.495Z,953.45
2018-07-11T06:49:34.896Z,953.46
2018-07-11T06:52:01.312Z,953.43
2018-07-11T06:54:27.607Z,953.44
2018-07-11T06:56:53.967Z,953.40
2018-07-11T06:59:20.327Z,953.41
2018-07-11T07:01:46.687Z,953.38
2018-07-11T07:04:13.045Z,953.42
2018-07-11T07:06:39.403Z,953.47
2018-07-11T07:09:05.761Z,953.45
2018-07-11T07:11:32.171Z,953.40
2018-07-11T07:13:58.534Z,953.38
2018-07-11T07:16:24.944Z,953.29
2018-07-11T07:18:51.264Z,953.33
2018-07-11T07:21:17.616Z,953.27
2018-07-11T07:23:43.973Z,953.31
2018-07-11T07:26:10.329Z,953.33
2018-07-11T07:28:36.696Z,953.36
2018-07-11T07:31:03.062Z,953.29
2018-07-11T07:33:29.408Z,953.29
2018-07-11T07:35:55.766Z,953.29
2018-07-11T07:38:22.139Z,953.20
2018-07-11T07:40:48.552Z,953.16
2018-07-11T07:43:15.008Z,953.22
2018-07-11T07:45:41.524Z,953.19
2018-07-11T07:48:07.891Z,953.17
2018-07-11T07:50:34.289Z,953.15
2018-07-11T07:53:00.624Z,953.19
2018-07-11T07:55:26.977Z,953.17
2018-07-11T07:57:53.334Z,953.21
2018-07-11T08:00:19.691Z,953.19
2018-07-11T08:02:46.163Z,953.13
2018-07-11T08:05:12.854Z,953.10
2018-07-11T08:07:39.225Z,953.06
2018-07-11T08:10:05.593Z,953.07
2018-07-11T08:12:31.998Z,953.03
2018-07-11T08:14:58.353Z,953.05
2018-07-11T08:17:24.739Z,952.95
2018-07-11T08:19:51.078Z,953.14
2018-07-11T08:22:17.453Z,953.03
2018-07-11T08:24:43.758Z,952.97
2018-07-11T08:27:10.184Z,952.95
2018-07-11T08:29:36.443Z,952.99
2018-07-11T08:32:02.755Z,952.93
2018-07-11T08:34:29.076Z,952.95
2018-07-11T08:36:55.389Z,952.89
2018-07-11T08:39:21.707Z,952.86
2018-07-11T08:41:48.025Z,952.88
2018-07-11T08:44:14.348Z,952.81
2018-07-11T08:46:40.667Z,952.87
2018-07-11T08:49:06.993Z,952.73
2018-07-11T08:51:33.371Z,952.78
2018-07-11T08:53:59.687Z,952.79
2018-07-11T08:56:26.006Z,952.77
2018-07-11T08:58:52.371Z,952.71
2018-07-11T09:01:18.681Z,952.69
2018-07-11T09:03:45.006Z,952.71
2018-07-11T09:06:11.333Z,952.70
2018-07-11T09:08:37.689Z,952.70
2018-07-11T09:11:04.002Z,952.78
2018-07-11T09:13:30.318Z,952.74
2018-07-11T09:15:56.641Z,952.71
2018-07-11T09:18:22.995Z,952.64
2018-07-11T09:20:49.348Z,952.61
2018-07-11T09:23:15.703Z,952.64
2018-07-11T09:25:42.016Z,952.63
2018-07-11T09:28:08.379Z,952.64
2018-07-11T09:33:01.011Z,952.66
2018-07-11T09:35:27.325Z,952.64
2018-07-11T09:37:53.647Z,952.63
2018-07-11T09:40:19.980Z,952.52
2018-07-11T09:42:46.301Z,952.63
2018-07-11T09:45:12.617Z,952.59
2018-07-11T09:47:38.928Z,952.59
2018-07-11T09:50:05.250Z,952.58
2018-07-11T09:52:31.563Z,952.58
2018-07-11T09:54:57.883Z,952.62
2018-07-11T09:57:24.207Z,952.63
2018-07-11T09:59:50.532Z,952.59
2018-07-11T10:02:16.853Z,952.55
2018-07-11T10:04:43.169Z,952.59
2018-07-11T10:07:09.491Z,952.56
2018-07-11T10:09:35.808Z,952.56
2018-07-11T10:12:02.153Z,952.61
2018-07-11T10:14:28.443Z,952.52
2018-07-11T10:16:54.759Z,952.56
2018-07-11T10:19:21.087Z,952.55
2018-07-11T10:21:47.399Z,952.51
2018-07-11T10:24:13.710Z,952.53
2018-07-11T10:26:40.026Z,952.57
2018-07-11T10:29:06.355Z,952.51
2018-07-11T10:31:32.710Z,952.50
2018-07-11T10:33:59.121Z,952.51
2018-07-11T10:36:25.497Z,952.45
2018-07-11T10:38:51.865Z,952.45
2018-07-11T10:41:18.187Z,952.42
2018-07-11T10:43:44.501Z,952.37
2018-07-11T10:46:10.873Z,952.39
2018-07-11T10:48:37.251Z,952.33
2018-07-11T10:51:03.552Z,952.32
2018-07-11T10:53:29.865Z,952.37
2018-07-11T10:55:56.183Z,952.32
2018-07-11T10:58:22.619Z,952.31
2018-07-11T11:01:05.031Z,952.33
2018-07-11T11:03:15.132Z,952.23
2018-07-11T11:05:41.451Z,952.29
2018-07-11T11:08:07.849Z,952.27
2018-07-11T11:10:34.097Z,952.30
2018-07-11T11:13:00.435Z,952.21
2018-07-11T11:15:26.746Z,952.15
2018-07-11T11:17:53.065Z,952.14
2018-07-11T11:20:19.388Z,952.14
2018-07-11T11:22:45.703Z,952.07
2018-07-11T11:25:12.035Z,952.16
2018-07-11T11:27:38.387Z,952.11
2018-07-11T11:30:04.673Z,952.06
2018-07-11T11:32:30.985Z,952.10
2018-07-11T11:34:57.301Z,952.05
2018-07-11T11:37:23.621Z,952.05
2018-07-11T11:39:49.935Z,952.01
2018-07-11T11:42:16.321Z,952.03
2018-07-11T11:44:42.570Z,951.97
2018-07-11T11:47:08.885Z,951.89
2018-07-11T11:49:35.196Z,951.91
2018-07-11T11:52:01.555Z,951.96
2018-07-11T11:54:27.849Z,951.91
2018-07-11T11:56:54.161Z,951.88
2018-07-11T11:59:20.476Z,951.88
2018-07-11T12:01:46.946Z,951.79
2018-07-11T12:04:13.116Z,951.81
2018-07-11T12:06:39.434Z,951.78
2018-07-11T12:09:05.753Z,951.82
2018-07-11T12:11:32.065Z,951.75
2018-07-11T12:13:58.423Z,951.80
2018-07-11T12:16:24.738Z,951.70
2018-07-11T12:18:51.054Z,951.64
2018-07-11T12:21:17.417Z,951.61
2018-07-11T12:23:43.687Z,951.63
2018-07-11T12:26:10.011Z,951.60
2018-07-11T12:28:36.326Z,951.59
2018-07-11T12:31:02.647Z,951.57
2018-07-11T12:33:29.005Z,951.49
2018-07-11T12:35:55.284Z,951.42
2018-07-11T12:38:21.635Z,951.47
2018-07-11T12:40:47.984Z,951.43
2018-07-11T12:43:14.294Z,951.48
2018-07-11T12:45:40.620Z,951.48
2018-07-11T12:48:06.935Z,951.47
2018-07-11T12:50:33.330Z,951.45
2018-07-11T12:52:59.611Z,951.40
2018-07-11T12:55:25.921Z,951.37
2018-07-11T12:57:52.276Z,951.34
2018-07-11T13:00:18.588Z,951.39
2018-07-11T13:02:44.921Z,951.35
2018-07-11T13:05:11.232Z,951.37
2018-07-11T13:07:37.574Z,951.45
2018-07-11T13:10:03.894Z,951.42
2018-07-11T13:12:30.210Z,951.43
2018-07-11T13:14:56.533Z,951.41
2018-07-11T13:17:22.861Z,951.30
2018-07-11T13:19:49.184Z,951.40
2018-07-11T13:22:15.494Z,951.30
2018-07-11T13:24:41.837Z,951.35
2018-07-11T13:27:08.159Z,951.30
2018-07-11T13:29:34.476Z,951.31
2018-07-11T13:32:00.787Z,951.42
2018-07-11T13:34:27.098Z,951.35
2018-07-11T13:36:53.421Z,951.30
2018-07-11T13:39:19.739Z,951.32
2018-07-11T13:41:46.053Z,951.33
2018-07-11T13:44:12.397Z,951.34
2018-07-11T13:46:38.724Z,951.38
2018-07-11T13:49:05.035Z,951.35
2018-07-11T13:51:31.350Z,951.39
2018-07-11T13:53:57.697Z,951.38
2018-07-11T13:56:24.025Z,951.34
2018-07-11T13:58:50.334Z,951.37
2018-07-11T14:01:16.692Z,951.32
2018-07-11T14:03:43.010Z,951.34
2018-07-11T14:06:09.330Z,951.34
2018-07-11T14:08:35.646Z,951.30
2018-07-11T14:11:01.967Z,951.31
2018-07-11T14:13:28.292Z,951.32
2018-07-11T14:15:54.610Z,951.32
2018-07-11T14:18:20.974Z,951.34
2018-07-11T14:20:47.341Z,951.26
2018-07-11T14:23:13.657Z,951.23
2018-07-11T14:25:39.976Z,951.27
2018-07-11T14:28:06.289Z,951.29
2018-07-11T14:30:32.624Z,951.24
2018-07-11T14:32:58.945Z,951.27
2018-07-11T14:35:25.309Z,951.20
2018-07-11T14:37:51.635Z,951.26
2018-07-11T14:40:17.947Z,951.20
2018-07-11T14:42:44.261Z,951.19
2018-07-11T14:45:16.464Z,951.25
2018-07-11T14:47:42.790Z,951.15
2018-07-11T14:50:09.106Z,951.16
2018-07-11T14:52:35.420Z,951.16
2018-07-11T14:55:01.735Z,951.13
2018-07-11T14:57:28.189Z,951.15
2018-07-11T14:59:54.433Z,951.16
2018-07-11T15:02:20.739Z,951.05
2018-07-11T15:04:47.064Z,951.18
2018-07-11T15:07:13.422Z,951.09
2018-07-11T15:09:39.737Z,951.10
2018-07-11T15:12:06.050Z,951.16
2018-07-11T15:14:32.373Z,951.17
2018-07-11T15:16:58.744Z,951.19
2018-07-11T15:19:25.047Z,951.25
2018-07-11T15:21:51.357Z,951.31
2018-07-11T15:24:17.684Z,951.24
2018-07-11T15:26:43.992Z,951.31
2018-07-11T15:29:10.303Z,951.33
2018-07-11T15:31:36.630Z,951.37
2018-07-11T15:34:02.975Z,951.34
2018-07-11T15:36:29.298Z,951.35
2018-07-11T15:38:55.662Z,951.35
2018-07-11T15:41:21.935Z,951.34
2018-07-11T15:43:48.305Z,951.40
2018-07-11T15:46:14.591Z,951.38
2018-07-11T15:48:40.944Z,951.40
2018-07-11T15:51:07.281Z,951.34
2018-07-11T15:53:33.611Z,951.35
2018-07-11T15:55:59.895Z,951.35
2018-07-11T15:58:26.230Z,951.39
2018-07-11T16:00:52.572Z,951.40
2018-07-11T16:03:18.892Z,951.47
2018-07-11T16:05:45.337Z,951.44
2018-07-11T16:08:11.525Z,951.42
2018-07-11T16:10:37.833Z,951.49
2018-07-11T16:13:04.153Z,951.44
2018-07-11T16:15:30.465Z,951.47
2018-07-11T16:17:56.788Z,951.52
2018-07-11T16:20:23.101Z,951.44
2018-07-11T16:22:49.409Z,951.45
2018-07-11T16:25:15.735Z,951.50
2018-07-11T16:27:42.107Z,951.54
2018-07-11T16:30:08.475Z,951.54
2018-07-11T16:32:34.785Z,951.58
2018-07-11T16:35:01.092Z,951.54
2018-07-11T16:37:27.413Z,951.58
2018-07-11T16:39:53.729Z,951.53
2018-07-11T16:42:20.077Z,951.51
2018-07-11T16:44:46.441Z,951.56
2018-07-11T16:47:12.757Z,951.54
2018-07-11T16:49:39.071Z,951.60
2018-07-11T16:52:05.390Z,951.61
2018-07-11T16:54:31.701Z,951.63
2018-07-11T16:56:59.695Z,951.69
2018-07-11T16:59:24.329Z,951.65
2018-07-11T17:01:50.636Z,951.73
2018-07-11T17:04:16.954Z,951.77
2018-07-11T17:06:43.273Z,951.80
2018-07-11T17:09:09.595Z,951.77
2018-07-11T17:11:36.347Z,951.83
2018-07-11T17:14:02.529Z,951.82
2018-07-11T17:16:29.402Z,951.81
2018-07-11T17:18:55.717Z,951.77
2018-07-11T17:21:22.052Z,951.82
2018-07-11T17:23:48.365Z,951.87
2018-07-11T17:26:14.689Z,951.88
2018-07-11T17:28:41.032Z,951.93
2018-07-11T17:31:07.354Z,951.98
2018-07-11T17:33:33.684Z,951.97
2018-07-11T17:36:00.027Z,952.02
2018-07-11T17:38:26.428Z,952.01
2018-07-11T17:40:52.745Z,952.02
2018-07-11T17:43:19.027Z,952.05
2018-07-11T17:45:45.341Z,952.13
2018-07-11T17:48:11.736Z,952.16
2018-07-11T17:50:38.018Z,952.20
2018-07-11T17:53:04.374Z,952.19
2018-07-11T17:55:30.701Z,952.28
2018-07-11T17:57:57.026Z,952.25
2018-07-11T18:00:23.393Z,952.31
2018-07-11T18:02:49.720Z,952.26
2018-07-11T18:05:16.087Z,952.25
2018-07-11T18:07:42.414Z,952.26
2018-07-11T18:10:08.758Z,952.27
2018-07-11T18:12:35.093Z,952.32
2018-07-11T18:15:01.452Z,952.27
2018-07-11T18:17:27.735Z,952.30
2018-07-11T18:19:54.100Z,952.28
2018-07-11T18:22:20.409Z,952.31
2018-07-11T18:24:46.717Z,952.39
2018-07-11T18:27:13.073Z,952.36
2018-07-11T18:29:39.401Z,952.38
2018-07-11T18:32:05.741Z,952.45
2018-07-11T18:34:32.051Z,952.44
2018-07-11T18:36:58.407Z,952.45
2018-07-11T18:39:24.771Z,952.59
2018-07-11T18:41:51.139Z,952.66
2018-07-11T18:44:17.451Z,952.68
2018-07-11T18:46:43.763Z,952.73
2018-07-11T18:49:10.100Z,952.72
2018-07-11T18:51:36.415Z,952.75
2018-07-11T18:54:02.738Z,952.72
2018-07-11T18:56:29.069Z,952.76
2018-07-11T18:58:55.375Z,952.80
2018-07-11T19:01:21.735Z,952.82
2018-07-11T19:03:48.045Z,952.84
2018-07-11T19:06:14.599Z,952.86
2018-07-11T19:08:40.734Z,952.90
2018-07-11T19:11:07.063Z,952.91
2018-07-11T19:13:33.409Z,952.92
2018-07-11T19:15:59.704Z,952.93
2018-07-11T19:18:26.048Z,952.95
2018-07-11T19:20:52.377Z,952.99
2018-07-11T19:23:18.691Z,952.98
2018-07-11T19:25:45.112Z,953.01
2018-07-11T19:28:11.404Z,952.99
2018-07-11T19:30:37.734Z,952.98
2018-07-11T19:33:04.072Z,953.02
2018-07-11T19:35:30.409Z,953.06
2018-07-11T19:37:56.739Z,953.09
2018-07-11T19:40:23.071Z,953.05
2018-07-11T19:42:49.432Z,953.03
2018-07-11T19:45:15.786Z,952.99
2018-07-11T19:47:42.102Z,953.01
2018-07-11T19:50:08.426Z,953.01
2018-07-11T19:52:34.748Z,953.07
2018-07-11T19:55:01.117Z,953.01
2018-07-11T19:57:27.430Z,953.04
2018-07-11T19:59:53.748Z,952.98
2018-07-11T20:02:20.060Z,953.03
2018-07-11T20:04:46.379Z,953.02
2018-07-11T20:07:12.733Z,952.98
2018-07-11T20:09:39.039Z,953.02
2018-07-11T20:12:05.352Z,952.94
2018-07-11T20:14:31.673Z,952.98
2018-07-11T20:16:57.990Z,952.97
2018-07-11T20:19:24.329Z,952.96
2018-07-11T20:21:50.628Z,953.05
2018-07-11T20:24:16.937Z,953.06
2018-07-11T20:26:43.257Z,953.05
2018-07-11T20:29:09.592Z,953.05
2018-07-11T20:31:35.909Z,953.04
2018-07-11T20:34:02.231Z,953.09
2018-07-11T20:36:28.563Z,953.04
2018-07-11T20:38:54.871Z,953.10
2018-07-11T20:41:21.193Z,953.07
2018-07-11T20:43:47.499Z,953.09
2018-07-11T20:46:13.882Z,953.22
2018-07-11T20:48:40.153Z,953.21
2018-07-11T20:53:32.578Z,953.32
2018-07-11T20:55:58.896Z,953.39
2018-07-11T20:58:25.205Z,953.40
2018-07-11T21:00:51.555Z,953.37
2018-07-11T21:03:17.868Z,953.37
2018-07-11T21:05:44.178Z,953.41
2018-07-11T21:08:10.499Z,953.44
2018-07-11T21:10:36.906Z,953.43
2018-07-11T21:14:13.631Z,953.43
2018-07-11T21:15:34.962Z,953.45
2018-07-11T21:18:01.287Z,953.51
2018-07-11T21:20:27.563Z,953.47
2018-07-11T21:23:08.110Z,953.53
2018-07-11T21:25:24.707Z,953.52
2018-07-11T21:27:50.941Z,953.57
2018-07-11T21:30:19.427Z,953.59
2018-07-11T21:32:43.559Z,953.53
2018-07-11T21:35:09.885Z,953.61
2018-07-11T21:37:36.186Z,953.67
2018-07-11T21:40:15.919Z,953.62
2018-07-11T21:42:46.144Z,953.60
2018-07-11T21:45:20.006Z,953.55
2018-07-11T21:47:46.336Z,953.60
2018-07-11T21:50:15.451Z,953.64
2018-07-11T21:52:41.769Z,953.56
2018-07-11T21:55:08.075Z,953.62
2018-07-11T21:57:34.394Z,953.61
2018-07-11T22:00:00.711Z,953.62
2018-07-11T22:02:27.105Z,953.56
2018-07-11T22:04:53.458Z,953.61
2018-07-11T22:07:19.767Z,953.71
2018-07-11T22:09:46.085Z,953.68
2018-07-11T22:12:12.397Z,953.63
2018-07-11T22:14:38.709Z,953.63
2018-07-11T22:17:05.027Z,953.66
2018-07-11T22:19:31.356Z,953.65
2018-07-11T22:21:57.715Z,953.68
2018-07-11T22:24:24.052Z,953.70
2018-07-11T22:26:50.333Z,953.70
2018-07-11T22:29:16.651Z,953.72
2018-07-11T22:31:42.961Z,953.64
2018-07-11T22:34:09.338Z,953.67
2018-07-11T22:36:35.659Z,953.64
2018-07-11T22:39:01.976Z,953.72
2018-07-11T22:41:28.331Z,953.71
2018-07-11T22:43:54.643Z,953.79
2018-07-11T22:46:20.996Z,953.79
2018-07-11T22:48:47.308Z,953.74
2018-07-11T22:51:13.619Z,953.78
2018-07-11T22:53:39.928Z,953.75
2018-07-11T22:56:06.281Z,953.72
2018-07-11T22:58:32.595Z,953.78
2018-07-11T23:00:58.914Z,953.75
2018-07-11T23:03:25.231Z,953.69
2018-07-11T23:05:51.540Z,953.67
2018-07-11T23:08:17.915Z,953.65
2018-07-11T23:10:44.200Z,953.64
2018-07-11T23:13:10.513Z,953.65
2018-07-11T23:15:36.863Z,953.70
2018-07-11T23:18:03.176Z,953.73
2018-07-11T23:20:29.529Z,953.79
2018-07-11T23:22:55.808Z,953.71
2018-07-11T23:25:22.126Z,953.71
2018-07-11T23:27:48.445Z,953.76
2018-07-11T23:30:14.760Z,953.86
2018-07-11T23:32:41.077Z,953.86
2018-07-11T23:35:07.397Z,953.85
2018-07-11T23:37:33.711Z,953.86
2018-07-11T23:40:00.028Z,953.94
2018-07-11T23:42:26.345Z,953.91
2018-07-11T23:44:52.652Z,954.00
2018-07-11T23:47:18.968Z,953.98
2018-07-11T23:49:45.285Z,954.01
2018-07-11T23:52:11.644Z,954.00
2018-07-11T23:54:37.963Z,954.00
2018-07-11T23:57:04.279Z,954.00
2018-07-11T23:59:30.649Z,954.02
